createdAt,value
2017-11-24T00:00:08.102Z,9.58
2017-11-24T00:02:36.384Z,6.72
2017-11-24T00:05:04.685Z,7.54
2017-11-24T00:07:32.939Z,11.82
2017-11-24T00:10:01.244Z,10.20
2017-11-24T00:12:29.504Z,13.32
2017-11-24T00:14:57.035Z,13.20
2017-11-24T00:17:26.108Z,7.94
2017-11-24T00:19:55.436Z,8.66
2017-11-24T00:22:23.727Z,6.98
2017-11-24T00:24:52.020Z,6.76
2017-11-24T00:27:20.315Z,15.52
2017-11-24T00:29:48.615Z,10.26
2017-11-24T00:32:16.951Z,13.26
2017-11-24T00:34:45.223Z,14.20
2017-11-24T00:37:13.519Z,17.26
2017-11-24T00:39:41.790Z,10.44
2017-11-24T00:42:10.056Z,14.28
2017-11-24T00:44:38.345Z,16.54
2017-11-24T00:47:06.596Z,6.30
2017-11-24T00:49:34.108Z,9.26
2017-11-24T00:52:02.375Z,12.36
2017-11-24T00:54:30.671Z,12.32
2017-11-24T00:56:58.951Z,14.02
2017-11-24T00:59:27.258Z,7.70
2017-11-24T01:01:56.756Z,14.82
2017-11-24T01:04:25.956Z,8.42
2017-11-24T01:06:54.266Z,15.58
2017-11-24T01:09:22.515Z,9.08
2017-11-24T01:11:50.782Z,10.68
2017-11-24T01:14:19.103Z,11.72
2017-11-24T01:16:47.373Z,8.62
2017-11-24T01:19:15.651Z,6.72
2017-11-24T01:21:43.940Z,8.24
2017-11-24T01:24:12.228Z,9.14
2017-11-24T01:26:40.511Z,15.52
2017-11-24T01:29:08.762Z,5.12
2017-11-24T01:31:37.090Z,5.40
2017-11-24T01:34:05.348Z,10.20
2017-11-24T01:36:33.621Z,5.94
2017-11-24T01:39:01.137Z,4.96
2017-11-24T01:41:29.440Z,10.14
2017-11-24T01:43:57.708Z,7.78
2017-11-24T01:46:27.198Z,10.70
2017-11-24T01:48:56.464Z,12.24
2017-11-24T01:51:25.972Z,7.52
2017-11-24T01:53:54.272Z,6.36
2017-11-24T01:56:22.547Z,14.86
2017-11-24T01:58:50.037Z,5.08
2017-11-24T02:01:19.362Z,7.52
2017-11-24T02:03:48.215Z,5.02
2017-11-24T02:06:26.686Z,10.28
2017-11-24T02:08:55.940Z,9.04
2017-11-24T02:11:24.836Z,12.40
2017-11-24T02:13:53.104Z,6.74
2017-11-24T02:16:21.359Z,8.50
2017-11-24T02:18:49.635Z,10.96
2017-11-24T02:21:17.900Z,10.60
2017-11-24T02:23:46.187Z,7.80
2017-11-24T02:26:15.423Z,17.02
2017-11-24T02:28:43.690Z,13.64
2017-11-24T02:31:11.936Z,5.40
2017-11-24T02:33:40.221Z,7.84
2017-11-24T02:36:08.470Z,10.32
2017-11-24T02:38:36.748Z,10.84
2017-11-24T02:41:04.996Z,11.98
2017-11-24T02:43:33.274Z,9.80
2017-11-24T02:46:01.576Z,14.34
2017-11-24T02:48:29.864Z,7.46
2017-11-24T02:50:58.158Z,9.42
2017-11-24T02:53:26.483Z,12.40
2017-11-24T02:55:56.126Z,8.22
2017-11-24T02:58:25.486Z,7.12
2017-11-24T03:00:53.828Z,8.90
2017-11-24T03:03:22.149Z,5.60
2017-11-24T03:05:50.408Z,9.80
2017-11-24T03:08:18.688Z,10.08
2017-11-24T03:10:46.972Z,5.14
2017-11-24T03:13:15.252Z,10.44
2017-11-24T03:15:43.505Z,8.16
2017-11-24T03:18:11.780Z,7.62
2017-11-24T03:20:40.031Z,9.50
2017-11-24T03:23:08.315Z,11.54
2017-11-24T03:25:35.799Z,7.64
2017-11-24T03:28:04.091Z,5.84
2017-11-24T03:30:32.340Z,13.96
2017-11-24T03:33:00.591Z,9.50
2017-11-24T03:35:28.867Z,8.16
2017-11-24T03:37:56.357Z,4.18
2017-11-24T03:40:25.462Z,8.04
2017-11-24T03:42:53.757Z,16.82
2017-11-24T03:45:22.035Z,12.50
2017-11-24T03:47:50.290Z,7.52
2017-11-24T03:50:18.576Z,9.28
2017-11-24T03:52:47.738Z,7.36
2017-11-24T03:55:16.027Z,11.10
2017-11-24T03:57:44.271Z,9.52
2017-11-24T04:00:12.547Z,12.10
2017-11-24T04:02:40.793Z,5.34
2017-11-24T04:05:08.319Z,7.36
2017-11-24T04:07:36.575Z,12.36
2017-11-24T04:10:04.857Z,10.74
2017-11-24T04:12:33.115Z,9.26
2017-11-24T04:15:01.404Z,8.38
2017-11-24T04:17:29.647Z,6.82
2017-11-24T04:19:57.891Z,7.22
2017-11-24T04:22:27.110Z,13.14
2017-11-24T04:24:55.977Z,8.68
2017-11-24T04:27:24.264Z,10.98
2017-11-24T04:29:52.543Z,11.76
2017-11-24T04:32:20.791Z,11.68
2017-11-24T04:34:49.067Z,9.42
2017-11-24T04:37:18.272Z,9.16
2017-11-24T04:39:46.993Z,12.86
2017-11-24T04:42:15.235Z,11.14
2017-11-24T04:44:43.527Z,10.12
2017-11-24T04:47:11.830Z,11.16
2017-11-24T04:49:40.083Z,14.96
2017-11-24T04:52:08.331Z,5.08
2017-11-24T04:54:36.599Z,9.56
2017-11-24T04:57:04.848Z,6.28
2017-11-24T04:59:33.136Z,12.22
2017-11-24T05:02:01.374Z,9.82
2017-11-24T05:04:29.623Z,12.42
2017-11-24T05:06:57.910Z,7.22
2017-11-24T05:09:27.554Z,17.82
2017-11-24T05:11:56.992Z,11.30
2017-11-24T05:14:25.248Z,11.86
2017-11-24T05:16:53.487Z,13.08
2017-11-24T05:19:21.759Z,20.24
2017-11-24T05:21:50.030Z,10.76
2017-11-24T05:24:19.280Z,14.92
2017-11-24T05:26:47.566Z,14.36
2017-11-24T05:29:15.057Z,14.20
2017-11-24T05:31:43.307Z,14.22
2017-11-24T05:34:11.583Z,13.66
2017-11-24T05:36:39.865Z,11.38
2017-11-24T05:39:08.135Z,9.02
2017-11-24T05:41:36.391Z,10.42
2017-11-24T05:44:04.663Z,13.90
2017-11-24T05:46:32.907Z,14.24
2017-11-24T05:49:01.184Z,4.82
2017-11-24T05:51:29.418Z,8.90
2017-11-24T05:53:57.694Z,7.38
2017-11-24T05:56:25.207Z,16.74
2017-11-24T05:58:53.450Z,6.78
2017-11-24T06:01:21.723Z,10.06
2017-11-24T06:03:49.970Z,11.82
2017-11-24T06:06:19.256Z,10.10
2017-11-24T06:08:47.517Z,10.22
2017-11-24T06:11:15.808Z,5.86
2017-11-24T06:13:44.056Z,6.92
2017-11-24T06:16:12.299Z,6.72
2017-11-24T06:18:40.563Z,4.88
2017-11-24T06:21:08.839Z,8.62
2017-11-24T06:23:37.096Z,6.24
2017-11-24T06:26:05.371Z,10.34
2017-11-24T06:28:33.611Z,6.38
2017-11-24T06:31:01.893Z,8.36
2017-11-24T06:33:30.167Z,5.84
2017-11-24T06:35:58.451Z,11.04
2017-11-24T06:38:26.732Z,5.96
2017-11-24T06:40:56.044Z,9.02
2017-11-24T06:43:25.330Z,8.98
2017-11-24T06:45:53.576Z,5.50
2017-11-24T06:48:21.843Z,7.74
2017-11-24T06:50:50.127Z,5.24
2017-11-24T06:53:19.196Z,10.28
2017-11-24T06:55:48.184Z,9.84
2017-11-24T06:58:17.142Z,7.80
2017-11-24T07:00:45.388Z,8.02
2017-11-24T07:03:13.630Z,9.56
2017-11-24T07:05:41.908Z,13.90
2017-11-24T07:08:10.153Z,8.82
2017-11-24T07:10:38.439Z,10.26
2017-11-24T07:13:06.686Z,13.04
2017-11-24T07:15:34.927Z,9.04
2017-11-24T07:18:02.455Z,10.04
2017-11-24T07:20:30.699Z,14.40
2017-11-24T07:22:58.945Z,12.18
2017-11-24T07:25:27.224Z,13.98
2017-11-24T07:27:56.661Z,12.42
2017-11-24T07:30:25.831Z,9.74
2017-11-24T07:32:54.805Z,14.84
2017-11-24T07:35:23.083Z,8.96
2017-11-24T07:37:51.332Z,12.64
2017-11-24T07:40:19.584Z,10.28
2017-11-24T07:42:48.627Z,11.40
2017-11-24T07:45:17.916Z,15.30
2017-11-24T07:47:46.168Z,12.76
2017-11-24T07:50:14.458Z,10.40
2017-11-24T07:52:42.711Z,10.40
2017-11-24T07:55:10.958Z,10.56
2017-11-24T07:57:39.235Z,7.44
2017-11-24T08:00:07.487Z,13.30
2017-11-24T08:02:39.771Z,10.04
2017-11-24T08:05:08.016Z,8.92
2017-11-24T08:07:36.306Z,10.28
2017-11-24T08:10:04.552Z,10.54
2017-11-24T08:12:32.791Z,7.82
2017-11-24T08:15:01.069Z,8.86
2017-11-24T08:17:29.313Z,9.44
2017-11-24T08:19:57.592Z,15.68
2017-11-24T08:22:27.134Z,12.08
2017-11-24T08:24:56.744Z,7.84
2017-11-24T08:27:25.868Z,7.98
2017-11-24T08:29:54.952Z,6.78
2017-11-24T08:32:23.227Z,14.48
2017-11-24T08:34:51.471Z,10.28
2017-11-24T08:37:19.750Z,9.82
2017-11-24T08:39:48.838Z,11.70
2017-11-24T08:42:17.142Z,7.82
2017-11-24T08:44:45.477Z,13.68
2017-11-24T08:47:19.360Z,13.10
2017-11-24T08:49:47.619Z,14.50
2017-11-24T08:52:15.892Z,10.76
2017-11-24T08:54:44.138Z,17.42
2017-11-24T08:57:12.416Z,10.96
2017-11-24T08:59:40.704Z,12.02
2017-11-24T09:02:08.955Z,11.80
2017-11-24T09:04:37.202Z,10.66
2017-11-24T09:07:05.472Z,8.92
2017-11-24T09:09:33.723Z,18.20
2017-11-24T09:12:02.028Z,11.94
2017-11-24T09:14:30.273Z,9.94
2017-11-24T09:16:58.542Z,10.80
2017-11-24T09:19:26.796Z,11.12
2017-11-24T09:21:56.079Z,14.92
2017-11-24T09:24:24.316Z,12.38
2017-11-24T09:26:52.604Z,12.94
2017-11-24T09:29:20.860Z,11.26
2017-11-24T09:31:49.134Z,12.52
2017-11-24T09:34:18.279Z,15.52
2017-11-24T09:36:47.272Z,17.84
2017-11-24T09:39:15.523Z,15.08
2017-11-24T09:41:43.812Z,16.06
2017-11-24T09:44:12.092Z,20.80
2017-11-24T09:46:40.344Z,16.22
2017-11-24T09:49:08.620Z,20.94
2017-11-24T09:51:36.872Z,19.24
2017-11-24T09:54:05.169Z,15.86
2017-11-24T09:56:33.454Z,19.62
2017-11-24T09:59:01.701Z,22.56
2017-11-24T10:01:29.948Z,16.36
2017-11-24T10:03:58.227Z,15.62
2017-11-24T10:06:26.477Z,18.72
2017-11-24T10:08:56.217Z,21.16
2017-11-24T10:11:25.571Z,14.30
2017-11-24T10:13:53.814Z,16.44
2017-11-24T10:16:22.064Z,21.90
2017-11-24T10:18:50.347Z,16.70
2017-11-24T10:21:26.076Z,18.64
2017-11-24T10:23:55.387Z,17.06
2017-11-24T10:26:23.633Z,14.94
2017-11-24T10:28:51.907Z,17.28
2017-11-24T10:31:20.161Z,17.38
2017-11-24T10:33:49.242Z,12.32
2017-11-24T10:36:18.267Z,23.06
2017-11-24T10:38:47.217Z,17.90
2017-11-24T10:41:15.468Z,13.08
2017-11-24T10:43:43.748Z,13.38
2017-11-24T10:46:11.999Z,15.68
2017-11-24T10:48:40.267Z,14.86
2017-11-24T10:51:08.523Z,13.38
2017-11-24T10:53:36.807Z,19.56
2017-11-24T10:56:05.055Z,18.74
2017-11-24T10:58:33.332Z,13.88
2017-11-24T11:01:01.575Z,13.46
2017-11-24T11:03:29.871Z,15.08
2017-11-24T11:05:58.140Z,16.72
2017-11-24T11:08:26.383Z,18.36
2017-11-24T11:10:56.069Z,13.48
2017-11-24T11:13:25.363Z,17.08
2017-11-24T11:15:53.635Z,17.66
2017-11-24T11:18:21.875Z,17.12
2017-11-24T11:20:50.152Z,14.92
2017-11-24T11:23:19.160Z,15.88
2017-11-24T11:25:48.117Z,13.74
2017-11-24T11:28:16.370Z,16.08
2017-11-24T11:30:44.637Z,17.60
2017-11-24T11:33:12.914Z,17.50
2017-11-24T11:35:41.215Z,16.30
2017-11-24T11:38:09.468Z,17.90
2017-11-24T11:40:37.751Z,17.58
2017-11-24T11:43:06.032Z,18.58
2017-11-24T11:45:37.256Z,13.46
2017-11-24T11:48:05.533Z,14.16
2017-11-24T11:50:33.791Z,17.36
2017-11-24T11:53:02.068Z,15.70
2017-11-24T11:55:36.245Z,18.90
2017-11-24T11:58:04.527Z,24.08
2017-11-24T12:00:32.796Z,24.70
2017-11-24T12:03:01.077Z,22.96
2017-11-24T12:05:29.322Z,20.48
2017-11-24T12:07:57.602Z,20.10
2017-11-24T12:10:27.074Z,18.10
2017-11-24T12:12:56.563Z,33.98
2017-11-24T12:15:26.234Z,24.38
2017-11-24T12:17:55.651Z,20.26
2017-11-24T12:20:27.560Z,19.62
2017-11-24T12:22:57.040Z,24.20
2017-11-24T12:25:26.179Z,15.92
2017-11-24T12:27:55.495Z,22.02
2017-11-24T12:30:29.604Z,26.62
2017-11-24T12:32:57.852Z,23.20
2017-11-24T12:35:25.909Z,22.04
2017-11-24T12:37:55.040Z,15.88
2017-11-24T12:40:23.291Z,16.92
2017-11-24T12:42:51.560Z,15.34
2017-11-24T12:45:19.802Z,14.20
2017-11-24T12:47:48.816Z,17.52
2017-11-24T12:50:17.956Z,12.22
2017-11-24T12:52:46.207Z,13.76
2017-11-24T12:55:14.488Z,14.84
2017-11-24T12:57:56.608Z,13.42
2017-11-24T13:00:25.903Z,15.22
2017-11-24T13:02:54.999Z,11.22
2017-11-24T13:05:23.256Z,14.44
2017-11-24T13:07:51.500Z,11.98
2017-11-24T13:10:19.780Z,15.78
2017-11-24T13:12:48.907Z,13.06
2017-11-24T13:15:36.143Z,13.88
2017-11-24T13:18:04.396Z,13.88
2017-11-24T13:20:32.648Z,11.54
2017-11-24T13:23:00.922Z,18.28
2017-11-24T13:25:29.171Z,12.96
2017-11-24T13:27:57.458Z,14.20
2017-11-24T13:30:26.827Z,9.74
2017-11-24T13:32:55.646Z,12.68
2017-11-24T13:35:25.397Z,13.00
2017-11-24T13:37:53.657Z,12.32
2017-11-24T13:40:21.939Z,17.64
2017-11-24T13:42:53.559Z,13.20
2017-11-24T13:45:21.808Z,11.14
2017-11-24T13:47:50.088Z,13.34
2017-11-24T13:50:25.476Z,13.38
2017-11-24T13:52:53.756Z,12.16
2017-11-24T13:55:22.007Z,23.86
2017-11-24T13:57:56.462Z,14.34
2017-11-24T14:00:26.175Z,22.60
2017-11-24T14:02:55.900Z,15.22
2017-11-24T14:05:24.984Z,13.16
2017-11-24T14:07:53.235Z,12.70
2017-11-24T14:10:21.487Z,12.52
2017-11-24T14:12:49.764Z,16.02
2017-11-24T14:15:18.660Z,15.64
2017-11-24T14:17:46.185Z,13.34
2017-11-24T14:20:25.439Z,14.92
2017-11-24T14:22:53.728Z,13.98
2017-11-24T14:25:21.985Z,14.94
2017-11-24T14:27:50.264Z,14.20
2017-11-24T14:30:19.344Z,17.04
2017-11-24T14:32:48.190Z,14.16
2017-11-24T14:35:16.433Z,12.78
2017-11-24T14:37:44.720Z,16.46
2017-11-24T14:40:12.971Z,14.98
2017-11-24T14:42:41.224Z,15.20
2017-11-24T14:45:09.514Z,14.82
2017-11-24T14:47:36.993Z,11.70
2017-11-24T14:50:05.267Z,18.38
2017-11-24T14:52:33.520Z,13.44
2017-11-24T14:55:01.817Z,18.48
2017-11-24T14:57:36.419Z,15.02
2017-11-24T15:00:04.704Z,15.34
2017-11-24T15:02:32.987Z,18.54
2017-11-24T15:05:01.295Z,13.86
2017-11-24T15:07:29.551Z,15.68
2017-11-24T15:09:57.835Z,18.00
2017-11-24T15:12:26.579Z,13.64
2017-11-24T15:14:55.875Z,10.30
2017-11-24T15:17:24.184Z,14.38
2017-11-24T15:19:52.437Z,11.26
2017-11-24T15:22:20.729Z,10.50
2017-11-24T15:24:48.984Z,14.12
2017-11-24T15:27:17.838Z,13.96
2017-11-24T15:29:46.127Z,15.12
2017-11-24T15:32:14.380Z,15.54
2017-11-24T15:34:42.642Z,11.34
2017-11-24T15:37:10.952Z,12.20
2017-11-24T15:39:39.200Z,12.06
2017-11-24T15:42:07.447Z,11.92
2017-11-24T15:44:35.738Z,11.00
2017-11-24T15:47:03.988Z,14.34
2017-11-24T15:49:32.237Z,9.98
2017-11-24T15:52:00.539Z,13.64
2017-11-24T15:54:28.020Z,8.50
2017-11-24T15:57:04.487Z,12.82
2017-11-24T15:59:32.751Z,11.02
2017-11-24T16:02:00.992Z,10.58
2017-11-24T16:04:29.284Z,10.66
2017-11-24T16:06:57.536Z,11.36
2017-11-24T16:09:26.659Z,12.44
2017-11-24T16:11:55.558Z,11.54
2017-11-24T16:14:25.623Z,13.62
2017-11-24T16:16:56.871Z,13.20
2017-11-24T16:19:28.762Z,13.68
2017-11-24T16:21:57.019Z,11.94
2017-11-24T16:24:25.638Z,14.58
2017-11-24T16:26:53.887Z,9.66
2017-11-24T16:29:22.239Z,13.14
2017-11-24T16:31:50.486Z,10.56
2017-11-24T16:34:19.443Z,13.34
2017-11-24T16:36:48.268Z,8.88
2017-11-24T16:39:16.540Z,10.02
2017-11-24T16:41:44.835Z,17.00
2017-11-24T16:44:13.115Z,13.48
2017-11-24T16:46:42.376Z,16.36
2017-11-24T16:49:10.677Z,39.26
2017-11-24T16:51:38.923Z,20.30
2017-11-24T16:54:07.166Z,11.46
2017-11-24T16:56:35.443Z,12.04
2017-11-24T16:59:09.483Z,15.02
2017-11-24T17:01:37.770Z,12.42
2017-11-24T17:04:06.015Z,11.72
2017-11-24T17:06:35.176Z,11.40
2017-11-24T17:09:03.477Z,17.22
2017-11-24T17:11:31.731Z,14.64
2017-11-24T17:13:59.983Z,12.80
2017-11-24T17:16:28.275Z,18.48
2017-11-24T17:18:56.524Z,21.88
2017-11-24T17:21:25.526Z,18.18
2017-11-24T17:23:53.808Z,16.68
2017-11-24T17:26:22.060Z,18.94
2017-11-24T17:28:51.571Z,16.22
2017-11-24T17:31:19.831Z,14.60
2017-11-24T17:33:48.276Z,14.86
2017-11-24T17:36:18.539Z,14.12
2017-11-24T17:38:47.438Z,11.60
2017-11-24T17:41:15.718Z,13.42
2017-11-24T17:43:44.034Z,13.22
2017-11-24T17:46:22.407Z,11.82
2017-11-24T17:48:50.683Z,14.08
2017-11-24T17:51:19.767Z,17.94
2017-11-24T17:53:48.327Z,12.10
2017-11-24T17:56:16.585Z,15.64
2017-11-24T17:58:44.842Z,17.24
2017-11-24T18:01:13.128Z,17.32
2017-11-24T18:03:41.380Z,16.52
2017-11-24T18:06:09.663Z,17.48
2017-11-24T18:08:37.917Z,12.24
2017-11-24T18:11:06.207Z,16.28
2017-11-24T18:13:34.452Z,17.36
2017-11-24T18:16:03.649Z,20.16
2017-11-24T18:18:31.947Z,20.84
2017-11-24T18:21:00.196Z,17.02
2017-11-24T18:23:28.476Z,22.40
2017-11-24T18:25:56.771Z,20.40
2017-11-24T18:28:25.388Z,20.82
2017-11-24T18:30:53.636Z,14.90
2017-11-24T18:33:21.924Z,14.42
2017-11-24T18:35:50.171Z,14.40
2017-11-24T18:38:18.970Z,18.50
2017-11-24T18:40:48.172Z,19.52
2017-11-24T18:43:16.422Z,18.48
2017-11-24T18:45:44.702Z,19.40
2017-11-24T18:48:12.995Z,18.30
2017-11-24T18:50:41.244Z,18.18
2017-11-24T18:53:09.492Z,18.36
2017-11-24T18:55:37.776Z,17.72
2017-11-24T18:58:06.022Z,18.14
2017-11-24T19:00:34.271Z,21.18
2017-11-24T19:03:02.568Z,22.66
2017-11-24T19:05:30.823Z,22.72
2017-11-24T19:07:59.103Z,23.30
2017-11-24T19:10:27.371Z,16.54
2017-11-24T19:12:56.312Z,17.76
2017-11-24T19:15:25.239Z,16.58
2017-11-24T19:17:53.493Z,14.54
2017-11-24T19:20:21.771Z,18.54
2017-11-24T19:22:50.027Z,17.90
2017-11-24T19:25:18.884Z,15.90
2017-11-24T19:27:47.458Z,19.56
2017-11-24T19:30:15.707Z,19.96
2017-11-24T19:32:43.982Z,17.06
2017-11-24T19:35:12.231Z,19.72
2017-11-24T19:37:40.498Z,24.18
2017-11-24T19:40:08.759Z,21.18
2017-11-24T19:42:37.015Z,21.76
2017-11-24T19:45:05.317Z,19.84
2017-11-24T19:47:33.618Z,21.26
2017-11-24T19:50:01.867Z,16.80
2017-11-24T19:52:30.149Z,20.96
2017-11-24T19:54:58.486Z,18.08
2017-11-24T19:57:26.747Z,20.24
2017-11-24T19:59:55.925Z,21.58
2017-11-24T20:02:24.637Z,19.70
2017-11-24T20:04:52.863Z,23.48
2017-11-24T20:07:21.156Z,21.28
2017-11-24T20:09:49.434Z,27.08
2017-11-24T20:12:18.251Z,26.48
2017-11-24T20:14:46.535Z,24.12
2017-11-24T20:17:14.815Z,25.06
2017-11-24T20:19:43.070Z,22.58
2017-11-24T20:22:11.324Z,27.82
2017-11-24T20:24:39.600Z,28.14
2017-11-24T20:27:07.847Z,35.66
2017-11-24T20:29:36.143Z,28.12
2017-11-24T20:32:04.446Z,34.74
2017-11-24T20:34:32.738Z,24.74
2017-11-24T20:37:00.276Z,28.12
2017-11-24T20:39:28.562Z,30.18
2017-11-24T20:41:56.859Z,28.64
2017-11-24T20:44:25.560Z,30.86
2017-11-24T20:46:53.872Z,25.52
2017-11-24T20:49:22.175Z,25.02
2017-11-24T20:51:50.460Z,29.32
2017-11-24T20:54:19.446Z,31.70
2017-11-24T20:56:48.364Z,32.72
2017-11-24T20:59:16.616Z,30.16
2017-11-24T21:01:44.908Z,39.22
2017-11-24T21:04:13.210Z,38.92
2017-11-24T21:06:41.466Z,33.48
2017-11-24T21:09:09.743Z,35.82
2017-11-24T21:11:37.991Z,38.18
2017-11-24T21:14:06.281Z,35.68
2017-11-24T21:16:33.809Z,32.70
2017-11-24T21:19:02.087Z,33.32
2017-11-24T21:21:30.380Z,38.52
2017-11-24T21:23:58.689Z,32.96
2017-11-24T21:26:26.940Z,32.16
2017-11-24T21:28:55.573Z,30.92
2017-11-24T21:31:23.899Z,26.96
2017-11-24T21:33:53.188Z,31.00
2017-11-24T21:36:20.763Z,32.16
2017-11-24T21:38:49.565Z,28.42
2017-11-24T21:41:18.404Z,31.46
2017-11-24T21:43:45.899Z,28.40
2017-11-24T21:46:14.192Z,32.68
2017-11-24T21:48:42.521Z,28.40
2017-11-24T21:51:10.771Z,30.54
2017-11-24T21:53:39.025Z,28.26
2017-11-24T21:56:07.307Z,32.02
2017-11-24T21:58:35.593Z,33.76
2017-11-24T22:01:03.848Z,23.20
2017-11-24T22:03:32.130Z,28.00
2017-11-24T22:06:00.426Z,26.98
2017-11-24T22:08:28.687Z,27.28
2017-11-24T22:10:57.067Z,23.30
2017-11-24T22:13:25.698Z,56.08
2017-11-24T22:15:55.267Z,28.42
2017-11-24T22:18:23.531Z,26.76
2017-11-24T22:20:51.847Z,30.96
2017-11-24T22:23:20.431Z,27.36
2017-11-24T22:25:48.515Z,26.62
2017-11-24T22:28:16.811Z,34.72
2017-11-24T22:30:45.081Z,30.52
2017-11-24T22:33:13.360Z,33.36
2017-11-24T22:35:41.610Z,40.08
2017-11-24T22:38:09.883Z,29.76
2017-11-24T22:40:38.151Z,38.88
2017-11-24T22:43:06.440Z,34.20
2017-11-24T22:45:34.721Z,35.58
2017-11-24T22:48:03.002Z,35.48
2017-11-24T22:50:31.278Z,33.48
2017-11-24T22:53:00.195Z,35.12
2017-11-24T22:55:28.820Z,36.72
2017-11-24T22:57:56.724Z,37.24
2017-11-24T23:00:25.852Z,29.22
2017-11-24T23:02:54.896Z,34.92
2017-11-24T23:05:23.580Z,39.28
2017-11-24T23:07:51.835Z,30.76
2017-11-24T23:10:21.510Z,33.28
2017-11-24T23:12:50.156Z,33.72
2017-11-24T23:15:19.408Z,36.32
2017-11-24T23:17:48.119Z,37.72
2017-11-24T23:20:16.380Z,32.80
2017-11-24T23:22:44.677Z,32.36
2017-11-24T23:25:12.944Z,36.04
2017-11-24T23:27:41.198Z,33.14
2017-11-24T23:30:09.480Z,36.64
2017-11-24T23:32:37.767Z,33.64
2017-11-24T23:35:06.021Z,33.06
2017-11-24T23:37:34.307Z,36.28
2017-11-24T23:40:02.571Z,28.96
2017-11-24T23:42:31.199Z,27.18
2017-11-24T23:44:59.783Z,28.60
2017-11-24T23:47:31.557Z,25.62
2017-11-24T23:50:00.150Z,27.48
2017-11-24T23:52:28.812Z,22.74
2017-11-24T23:54:56.603Z,19.10
2017-11-24T23:57:25.977Z,22.22
2017-11-24T23:59:54.648Z,13.72
